Boley, Oklahoma
Current Conditions -  °F | °C
As of 9:35 PM on Saturday 22 Nov 2014 (Local Time) from KCQB Reporting Station
Broken Clouds Broken Clouds  
Wind Chill: 59°   Ceiling: 900
Heat Index: 59°   Visibility: 10mi
Dew Point: 59°   Wind: 15mph
Humidity: 100%   Direction: 170°S
Pressure: 29.73"   Gusts: 23mph
Location:  35.49°N, 96.48°W
Report Text: KCQB 230335Z AUTO 17013G20KT 10SM BKN009 BKN012 15/15 A2973 RMK AO2
Loading
Personal Weather Stations






























Interactive Weather Map New forecast layout! Learn more

10-Day Weather Forecast

Advertisements
Track Severe Weather on mobile